Time;durP1;ratioP1;P1;durP2;ratioP2;P2;SDS_P1;SDS_P2;PMS_P1;PMS_P2;Temp;Humidity;BMP_temperature;BMP_pressure;BME280_temperature;BME280_humidity;BME280_pressure;Samples;Min_cycle;Max_cycle;Signal;HPM_P1;HPM_P2
2022/06/13 00:01:48;;;;;;;15.60;7.57;;;;;;;12.33;93.23;101758.16;5011958;28;20481;-46
2022/06/13 00:04:16;;;;;;;14.63;6.67;;;;;;;12.29;93.42;101753.34;5012128;28;20839;-46
2022/06/13 00:06:46;;;;;;;19.67;6.60;;;;;;;12.24;93.33;101753.91;5012279;28;20491;-45
2022/06/13 00:09:14;;;;;;;18.00;6.83;;;;;;;12.20;93.66;101756.09;5010915;28;20469;-46
2022/06/13 00:11:42;;;;;;;17.70;7.17;;;;;;;12.16;93.81;101751.28;5011832;28;20457;-45
2022/06/13 00:14:10;;;;;;;14.03;8.03;;;;;;;12.13;94.06;101738.28;5012043;28;20452;-44
2022/06/13 00:16:39;;;;;;;16.80;7.47;;;;;;;12.09;94.05;101740.53;5011887;28;20453;-45
2022/06/13 00:19:07;;;;;;;18.57;7.47;;;;;;;12.08;94.51;101735.34;5010939;28;21041;-47
2022/06/13 00:21:37;;;;;;;15.07;6.43;;;;;;;12.03;94.78;101741.25;5011269;28;20489;-46
2022/06/13 00:24:10;;;;;;;11.57;6.30;;;;;;;12.03;94.71;101749.25;5011970;28;20441;-45
2022/06/13 00:26:40;;;;;;;13.33;7.33;;;;;;;12.00;94.49;101741.59;5011802;28;20444;-46
2022/06/13 00:29:08;;;;;;;14.70;6.87;;;;;;;11.97;94.29;101733.13;5010945;28;21002;-44
2022/06/13 00:31:38;;;;;;;11.03;6.83;;;;;;;11.94;94.54;101734.31;5006861;28;21048;-45
2022/06/13 00:34:06;;;;;;;16.50;7.37;;;;;;;11.93;94.84;101737.97;5010315;28;20915;-46
2022/06/13 00:36:34;;;;;;;15.23;7.97;;;;;;;11.91;94.86;101744.53;5011489;28;20582;-45
2022/06/13 00:39:06;;;;;;;13.10;6.40;;;;;;;11.90;94.98;101740.19;5010667;28;20741;-46
2022/06/13 00:41:37;;;;;;;14.90;7.40;;;;;;;11.86;94.76;101733.53;5011027;28;20472;-46
2022/06/13 00:44:16;;;;;;;13.43;7.30;;;;;;;11.83;95.04;101733.88;5011165;28;20448;-48
2022/06/13 00:46:45;;;;;;;12.80;7.10;;;;;;;11.81;95.50;101734.09;5011470;28;20425;-46
2022/06/13 00:49:19;;;;;;;14.07;7.60;;;;;;;11.81;95.26;101730.56;5010627;28;20461;-45
2022/06/13 00:51:50;;;;;;;19.63;8.17;;;;;;;11.79;95.34;101733.44;5011042;28;20460;-44
2022/06/13 00:54:22;;;;;;;11.83;6.20;;;;;;;11.76;95.48;101723.13;5005198;28;20831;-46
2022/06/13 00:56:51;;;;;;;15.80;7.23;;;;;;;11.76;95.75;101720.44;5014610;28;20432;-46
2022/06/13 00:59:22;;;;;;;19.87;8.20;;;;;;;11.75;95.82;101726.78;5013610;28;21123;-46
2022/06/13 01:01:50;;;;;;;20.03;8.23;;;;;;;11.74;95.59;101730.47;5010902;28;20538;-44
2022/06/13 01:04:19;;;;;;;16.43;8.00;;;;;;;11.73;96.06;101725.31;5011600;28;20422;-46
2022/06/13 01:06:50;;;;;;;15.37;8.50;;;;;;;11.72;95.98;101715.63;5011374;28;20938;-43
2022/06/13 01:11:16;;;;;;;12.33;7.27;;;;;;;11.72;96.34;101724.47;5010047;28;20457;-44
2022/06/13 01:12:13;;;;;;;13.97;7.53;;;;;;;11.73;96.66;101712.78;5010886;28;20457;-43
2022/06/13 01:14:57;;;;;;;12.77;7.17;;;;;;;11.75;96.31;101712.59;5011370;28;20518;-46
2022/06/13 01:17:43;;;;;;;17.60;8.80;;;;;;;11.76;96.43;101714.25;5012908;28;20457;-46
2022/06/13 01:20:54;;;;;;;17.93;7.73;;;;;;;11.77;96.41;101708.72;5014504;28;21059;-44
2022/06/13 01:23:42;;;;;;;14.73;7.40;;;;;;;11.83;96.86;101709.84;4915948;29;20477;-46
2022/06/13 01:26:53;;;;;;;16.40;7.47;;;;;;;11.89;96.93;101707.28;5015115;28;20440;-44
2022/06/13 01:29:38;;;;;;;15.17;8.00;;;;;;;11.92;96.87;101711.41;5013998;28;20456;-44
2022/06/13 01:32:17;;;;;;;16.53;7.00;;;;;;;11.94;96.67;101709.41;5014924;28;20484;-44
2022/06/13 01:34:58;;;;;;;13.93;7.87;;;;;;;11.98;96.72;101692.81;5015215;28;20789;-44
2022/06/13 01:37:40;;;;;;;16.70;7.30;;;;;;;12.00;96.62;101693.50;5014296;28;20476;-45
2022/06/13 01:40:18;;;;;;;10.80;6.70;;;;;;;12.02;96.87;101690.63;5014535;28;20441;-45
2022/06/13 01:43:00;;;;;;;14.70;8.00;;;;;;;12.01;96.73;101687.09;5014611;28;21016;-45
2022/06/13 01:45:40;;;;;;;15.97;7.60;;;;;;;11.99;96.71;101688.31;5015211;28;20436;-46
2022/06/13 01:48:19;;;;;;;16.80;7.37;;;;;;;11.99;96.64;101685.63;5014077;28;20494;-45
2022/06/13 01:50:54;;;;;;;16.67;7.80;;;;;;;11.95;96.55;101689.69;5014284;28;20452;-44
2022/06/13 01:53:28;;;;;;;16.23;7.30;;;;;;;11.93;96.50;101689.03;5013112;28;20945;-46
2022/06/13 01:56:01;;;;;;;14.73;7.50;;;;;;;11.95;96.84;101687.00;5012534;28;20437;-47
2022/06/13 01:58:36;;;;;;;12.77;7.30;;;;;;;11.96;96.80;101678.81;5011057;28;20463;-50
2022/06/13 02:01:07;;;;;;;19.73;8.70;;;;;;;11.97;96.73;101680.50;5013529;28;20460;-46
2022/06/13 02:03:43;;;;;;;19.93;9.43;;;;;;;12.00;97.02;101679.28;5013687;28;20469;-49
2022/06/13 02:06:17;;;;;;;16.57;9.03;;;;;;;12.03;96.92;101689.63;5014062;28;20873;-46
2022/06/13 02:08:50;;;;;;;22.27;7.90;;;;;;;12.05;96.92;101685.75;5013087;28;20468;-48
2022/06/13 02:11:23;;;;;;;10.80;6.40;;;;;;;12.10;96.99;101685.16;5013410;28;20823;-50
2022/06/13 02:13:54;;;;;;;13.20;8.37;;;;;;;12.14;97.08;101675.78;5013623;28;20516;-47
2022/06/13 02:16:27;;;;;;;18.90;7.60;;;;;;;12.17;97.02;101678.94;5013924;28;20869;-45
2022/06/13 02:19:04;;;;;;;15.23;6.80;;;;;;;12.23;97.28;101684.53;5013105;28;20475;-47
2022/06/13 02:21:37;;;;;;;7.30;6.13;;;;;;;12.18;97.04;101679.75;5013107;28;20970;-44
2022/06/13 02:24:10;;;;;;;19.33;7.30;;;;;;;12.14;97.26;101687.31;5013688;28;20477;-49
2022/06/13 02:26:41;;;;;;;8.83;5.87;;;;;;;12.07;96.92;101693.56;5013108;28;20440;-46
2022/06/13 02:29:15;;;;;;;6.83;5.03;;;;;;;11.98;96.85;101692.81;5012312;28;20475;-48
2022/06/13 02:31:47;;;;;;;8.83;3.60;;;;;;;11.81;96.01;101685.16;5013087;28;20461;-46
2022/06/13 02:34:21;;;;;;;3.87;3.40;;;;;;;11.70;95.48;101677.56;5013969;28;20439;-46
2022/06/13 02:36:57;;;;;;;5.43;3.17;;;;;;;11.65;95.37;101678.91;5013385;28;20437;-44
2022/06/13 02:39:32;;;;;;;2.90;2.60;;;;;;;11.64;95.22;101682.59;5013094;28;20459;-49
2022/06/13 02:42:03;;;;;;;3.60;2.97;;;;;;;11.65;95.57;101681.56;5013106;28;20448;-47
2022/06/13 02:44:37;;;;;;;3.57;3.27;;;;;;;11.64;94.90;101679.09;5013625;28;20869;-44
2022/06/13 02:47:10;;;;;;;3.90;3.60;;;;;;;11.61;95.06;101676.78;5012619;28;20948;-49
2022/06/13 02:49:43;;;;;;;3.60;3.40;;;;;;;11.61;95.07;101682.97;5012702;28;20439;-47
2022/06/13 02:52:18;;;;;;;5.20;3.40;;;;;;;11.61;95.20;101672.28;5013064;28;20471;-45
2022/06/13 02:54:49;;;;;;;6.00;3.87;;;;;;;11.64;95.41;101663.06;5013179;28;20825;-44
2022/06/13 02:57:34;;;;;;;5.63;3.40;;;;;;;11.70;95.31;101670.41;5012421;28;20425;-47
2022/06/13 03:00:25;;;;;;;7.10;3.87;;;;;;;11.73;95.27;101675.38;5012519;28;20429;-44
2022/06/13 03:03:04;;;;;;;5.37;3.30;;;;;;;11.75;95.17;101672.50;5010164;28;20780;-44
2022/06/13 03:05:46;;;;;;;7.20;3.87;;;;;;;11.79;95.49;101665.81;5013290;28;20776;-47
2022/06/13 03:08:23;;;;;;;3.27;2.97;;;;;;;11.81;95.58;101661.94;5011848;28;20465;-47
2022/06/13 03:11:00;;;;;;;5.40;3.47;;;;;;;11.86;95.42;101656.03;5002987;28;20456;-45
2022/06/13 03:13:35;;;;;;;6.93;3.80;;;;;;;11.89;95.33;101647.63;5012891;28;20447;-47
2022/06/13 03:16:13;;;;;;;4.40;3.73;;;;;;;11.93;95.32;101647.09;5002479;28;20436;-46
2022/06/13 03:18:48;;;;;;;5.97;3.67;;;;;;;11.95;95.30;101646.91;5003408;28;20527;-44
2022/06/13 03:21:26;;;;;;;3.90;3.60;;;;;;;11.98;95.20;101642.03;5012224;28;20449;-45
2022/06/13 03:23:58;;;;;;;6.83;3.40;;;;;;;12.02;95.41;101639.81;5012533;28;20488;-47
2022/06/13 03:26:31;;;;;;;4.87;3.73;;;;;;;12.04;95.14;101638.63;5012540;28;20808;-48
2022/06/13 03:29:05;;;;;;;4.63;3.30;;;;;;;12.09;95.18;101633.56;5011776;28;20556;-45
2022/06/13 03:31:38;;;;;;;7.77;3.77;;;;;;;12.13;95.30;101642.88;5011815;28;20465;-46
2022/06/13 03:34:10;;;;;;;10.13;4.00;;;;;;;12.19;95.53;101635.94;5012362;28;20429;-47
2022/06/13 03:36:42;;;;;;;4.13;3.63;;;;;;;12.25;95.34;101635.19;5012340;28;20433;-44
2022/06/13 03:39:16;;;;;;;4.30;3.80;;;;;;;12.37;95.71;101643.56;5010835;28;20469;-48
2022/06/13 03:41:48;;;;;;;3.53;3.23;;;;;;;12.45;95.36;101638.16;5011582;28;20486;-47
2022/06/13 03:44:20;;;;;;;8.70;3.50;;;;;;;12.54;95.07;101643.22;5012510;28;20477;-48
2022/06/13 03:46:54;;;;;;;4.20;3.83;;;;;;;12.60;94.35;101641.63;5012269;28;20776;-45
2022/06/13 03:49:25;;;;;;;4.63;4.23;;;;;;;12.68;94.12;101641.50;5011224;28;21026;-44
2022/06/13 03:51:59;;;;;;;6.40;4.33;;;;;;;12.80;94.26;101629.28;5011397;28;20460;-47
2022/06/13 03:54:34;;;;;;;8.00;4.30;;;;;;;12.89;94.55;101636.19;5012631;28;20430;-44
2022/06/13 03:57:08;;;;;;;4.70;4.30;;;;;;;12.95;94.08;101637.28;5011297;28;20960;-45
2022/06/13 03:59:40;;;;;;;5.40;4.30;;;;;;;12.98;93.65;101645.75;5011575;28;20440;-51
2022/06/13 04:02:11;;;;;;;5.63;4.20;;;;;;;13.02;93.06;101644.34;5011442;28;20819;-45
2022/06/13 04:04:42;;;;;;;5.87;4.03;;;;;;;13.11;93.10;101635.19;5011532;28;20504;-46
2022/06/13 04:07:11;;;;;;;4.60;4.03;;;;;;;13.17;92.92;101647.81;5011327;28;20852;-44
2022/06/13 04:09:45;;;;;;;16.70;5.43;;;;;;;13.24;92.09;101637.16;5011314;28;20443;-46
2022/06/13 04:12:44;;;;;;;6.27;4.83;;;;;;;13.26;91.38;101641.31;5011543;28;20449;-45
2022/06/13 04:15:29;;;;;;;4.53;4.13;;;;;;;13.38;91.74;101648.84;5011443;28;20429;-48
2022/06/13 04:18:05;;;;;;;5.17;4.33;;;;;;;13.47;91.85;101645.81;5011000;28;20507;-45
2022/06/13 04:20:44;;;;;;;5.27;4.73;;;;;;;13.56;91.71;101652.69;5010991;28;20443;-46
2022/06/13 04:23:22;;;;;;;7.30;4.07;;;;;;;13.62;90.66;101656.47;5011544;28;20441;-45
2022/06/13 04:25:57;;;;;;;9.23;4.90;;;;;;;13.74;90.82;101653.03;5011635;28;20426;-47
2022/06/13 04:28:30;;;;;;;5.87;5.03;;;;;;;13.79;89.78;101653.31;5010518;28;20471;-44
2022/06/13 04:31:01;;;;;;;8.60;5.30;;;;;;;14.01;89.73;101654.06;5010515;28;20463;-44
2022/06/13 04:33:36;;;;;;;5.80;4.83;;;;;;;14.49;91.96;101654.97;5004846;28;20437;-46
2022/06/13 04:36:05;;;;;;;8.30;5.27;;;;;;;15.03;91.44;101651.41;5011648;28;20417;-46
2022/06/13 04:38:36;;;;;;;7.33;5.30;;;;;;;16.15;83.85;101641.50;5010367;28;20468;-45
2022/06/13 04:41:06;;;;;;;4.53;4.10;;;;;;;17.22;85.33;101628.97;5010803;28;20456;-46
2022/06/13 04:43:37;;;;;;;8.40;4.23;;;;;;;18.18;79.75;101635.56;5010948;28;20960;-47
2022/06/13 04:46:09;;;;;;;13.73;5.50;;;;;;;19.13;75.86;101641.22;5011138;28;20451;-46
2022/06/13 04:48:39;;;;;;;6.30;4.57;;;;;;;19.64;62.38;101633.34;5010247;28;20468;-47
2022/06/13 04:51:09;;;;;;;5.10;4.70;;;;;;;20.26;61.97;101633.66;5010329;28;20457;-47
2022/06/13 04:53:51;;;;;;;5.10;4.70;;;;;;;21.03;60.79;101634.09;5010994;28;20510;-49
2022/06/13 04:56:19;;;;;;;12.53;5.73;;;;;;;22.11;60.86;101626.34;5011022;28;20440;-48
2022/06/13 04:58:48;;;;;;;7.43;4.97;;;;;;;22.88;58.57;101628.94;5010058;28;20465;-46
2022/06/13 05:01:23;;;;;;;5.17;4.70;;;;;;;23.82;57.18;101621.03;5010881;28;20459;-46
2022/06/13 05:03:52;;;;;;;5.90;5.10;;;;;;;24.59;53.35;101634.75;5010854;28;20802;-47
2022/06/13 05:06:27;;;;;;;5.10;4.60;;;;;;;25.57;53.10;101624.56;5010960;28;20483;-45
2022/06/13 05:08:58;;;;;;;5.80;5.10;;;;;;;26.19;49.25;101633.22;5010227;28;21010;-44
2022/06/13 05:11:28;;;;;;;5.30;4.80;;;;;;;26.70;49.10;101633.75;5010544;28;20459;-43
2022/06/13 05:14:01;;;;;;;10.60;5.07;;;;;;;26.87;48.07;101633.44;5010747;28;20433;-43
2022/06/13 05:16:40;;;;;;;8.47;5.00;;;;;;;25.87;46.49;101632.69;5010940;28;20842;-43
2022/06/13 05:19:31;;;;;;;7.73;4.50;;;;;;;24.78;45.87;101655.03;5010139;28;20468;-48
2022/06/13 05:22:09;;;;;;;5.60;5.10;;;;;;;23.47;49.31;101641.50;5010531;28;20471;-46
2022/06/13 05:24:57;;;;;;;10.77;6.23;;;;;;;22.55;51.11;101643.47;5010875;28;20478;-49
2022/06/13 05:27:24;;;;;;;9.73;6.13;;;;;;;21.72;52.25;101643.66;5010262;28;20461;-46
2022/06/13 05:29:52;;;;;;;7.00;6.00;;;;;;;21.25;54.45;101645.91;5010261;28;20436;-46
2022/06/13 05:32:22;;;;;;;16.00;6.67;;;;;;;21.66;54.01;101642.78;5003632;28;20511;-46
2022/06/13 05:34:51;;;;;;;5.93;5.33;;;;;;;21.57;54.94;101644.25;5010821;28;20421;-49
2022/06/13 05:37:20;;;;;;;8.40;6.20;;;;;;;21.25;55.23;101644.00;5009983;28;20596;-48
2022/06/13 05:39:49;;;;;;;7.80;5.30;;;;;;;21.65;54.74;101637.59;5010326;28;20436;-45
2022/06/13 05:42:17;;;;;;;13.87;5.40;;;;;;;21.52;55.06;101638.75;5010198;28;20457;-49
2022/06/13 05:44:44;;;;;;;6.43;5.70;;;;;;;21.33;55.26;101646.31;5010534;28;21173;-46
2022/06/13 05:47:18;;;;;;;7.97;6.00;;;;;;;21.16;54.79;101647.38;5009958;28;20443;-45
2022/06/13 05:49:46;;;;;;;7.77;7.00;;;;;;;21.03;55.05;101643.03;5010399;28;20435;-47
2022/06/13 05:52:14;;;;;;;9.40;5.93;;;;;;;20.96;56.65;101650.50;5010356;28;20950;-45
2022/06/13 05:54:42;;;;;;;13.47;6.40;;;;;;;20.50;57.18;101651.50;5010630;28;20467;-47
2022/06/13 05:57:12;;;;;;;10.00;6.63;;;;;;;21.14;54.71;101641.38;5014701;28;20428;-46
2022/06/13 05:59:39;;;;;;;5.90;4.87;;;;;;;22.42;54.62;101643.88;5010485;28;20432;-46
2022/06/13 06:02:09;;;;;;;15.27;5.90;;;;;;;23.78;51.74;101641.69;5010453;28;20449;-47
2022/06/13 06:04:37;;;;;;;7.77;5.50;;;;;;;24.49;50.67;101641.00;5013806;28;20483;-47
2022/06/13 06:07:05;;;;;;;8.03;5.30;;;;;;;25.54;45.91;101639.59;5013556;28;20433;-47
2022/06/13 06:09:33;;;;;;;5.83;4.77;;;;;;;26.26;46.41;101636.44;5013445;28;20813;-46
2022/06/13 06:12:01;;;;;;;6.53;5.00;;;;;;;27.12;45.94;101638.72;5013720;28;20510;-47
2022/06/13 06:14:30;;;;;;;9.43;4.33;;;;;;;27.67;43.54;101640.22;5014223;28;20439;-47
2022/06/13 06:16:57;;;;;;;8.40;4.90;;;;;;;28.18;41.84;101640.50;5013736;28;20433;-45
2022/06/13 06:19:26;;;;;;;5.93;5.20;;;;;;;28.66;38.71;101640.47;5013218;28;20950;-47
2022/06/13 06:21:53;;;;;;;6.83;4.70;;;;;;;27.60;40.33;101636.97;5013141;28;20606;-50
2022/06/13 06:24:21;;;;;;;8.00;4.60;;;;;;;26.80;42.52;101636.47;5013918;28;20206;-45
2022/06/13 06:26:49;;;;;;;7.67;4.20;;;;;;;27.55;41.66;101631.56;5013680;28;20228;-47
2022/06/13 06:29:17;;;;;;;11.80;5.10;;;;;;;28.32;39.99;101633.19;5012716;28;20474;-46
2022/06/13 06:31:45;;;;;;;6.67;4.30;;;;;;;27.72;39.25;101625.63;5017444;28;20469;-46
2022/06/13 06:34:14;;;;;;;7.70;4.93;;;;;;;28.50;37.36;101626.94;5013519;28;20185;-46
2022/06/13 06:36:41;;;;;;;7.07;3.77;;;;;;;27.72;40.10;101618.22;5013133;28;20193;-45
2022/06/13 06:39:09;;;;;;;8.93;4.70;;;;;;;26.19;39.20;101616.81;5012610;28;20229;-46
2022/06/13 06:41:36;;;;;;;13.90;6.53;;;;;;;24.27;42.64;101615.84;5012750;28;20217;-45
2022/06/13 06:44:04;;;;;;;12.67;6.37;;;;;;;22.94;46.23;101617.00;5013317;28;20451;-47
2022/06/13 06:46:32;;;;;;;10.43;6.67;;;;;;;21.82;48.39;101622.94;5013146;28;20476;-45
2022/06/13 06:49:01;;;;;;;8.03;6.23;;;;;;;20.92;51.14;101638.50;5012415;28;20468;-45
2022/06/13 06:51:29;;;;;;;10.00;5.37;;;;;;;20.05;54.91;101648.59;5012828;28;20507;-50
2022/06/13 07:02:13;;;;;;;7.60;4.70;;;;;;;18.30;60.09;101664.53;5012715;28;20966;-46
2022/06/13 07:04:42;;;;;;;7.30;4.87;;;;;;;18.91;58.48;101658.97;5013024;28;20440;-50
2022/06/13 07:07:10;;;;;;;10.83;5.00;;;;;;;18.34;60.87;101660.34;5012229;28;20483;-46
2022/06/13 07:09:38;;;;;;;7.43;5.47;;;;;;;18.39;63.24;101665.88;5012070;28;20823;-45
2022/06/13 07:12:06;;;;;;;5.53;4.83;;;;;;;18.28;61.89;101663.94;5012123;28;20456;-47
2022/06/13 07:14:35;;;;;;;8.13;4.63;;;;;;;17.95;61.62;101653.47;5011672;28;20436;-47
2022/06/13 07:17:05;;;;;;;7.93;4.43;;;;;;;17.76;62.43;101659.88;5011989;28;20520;-44
2022/06/13 07:19:33;;;;;;;5.30;4.13;;;;;;;17.84;62.23;101657.72;5012037;28;20429;-46
2022/06/13 07:22:03;;;;;;;4.50;3.53;;;;;;;18.18;60.52;101661.75;5012225;28;20453;-47
2022/06/13 07:24:32;;;;;;;7.63;4.10;;;;;;;19.40;59.79;101645.19;5012284;28;20822;-45
2022/06/13 07:27:00;;;;;;;8.40;4.10;;;;;;;20.50;55.83;101642.53;5011853;28;20815;-47
2022/06/13 07:29:28;;;;;;;7.97;3.70;;;;;;;20.50;55.64;101653.38;5012020;28;20439;-47
2022/06/13 07:31:58;;;;;;;6.53;4.27;;;;;;;20.00;58.54;101653.91;5005326;28;20473;-47
2022/06/13 07:34:29;;;;;;;9.00;4.30;;;;;;;18.49;58.29;101660.78;5012597;28;20437;-47
2022/06/13 07:36:58;;;;;;;7.40;6.50;;;;;;;17.06;63.98;101668.03;5012112;28;20739;-48
2022/06/13 07:39:27;;;;;;;13.83;12.87;;;;;;;16.33;68.36;101676.66;5012130;28;20519;-49
2022/06/13 07:41:57;;;;;;;29.27;27.10;;;;;;;15.64;73.29;101677.16;5022353;28;20452;-46
2022/06/13 07:44:28;;;;;;;30.10;27.80;;;;;;;14.92;82.08;101668.97;5012866;28;20429;-45
2022/06/13 07:46:56;;;;;;;29.07;27.23;;;;;;;14.45;85.13;101672.50;5012424;28;20953;-44
2022/06/13 07:49:24;;;;;;;27.23;25.60;;;;;;;13.99;88.61;101664.16;5011864;28;21033;-47
2022/06/13 07:51:52;;;;;;;25.10;23.90;;;;;;;14.01;90.46;101674.72;5012089;28;20453;-47
2022/06/13 07:54:21;;;;;;;21.63;20.63;;;;;;;13.84;91.89;101668.78;5012750;28;20491;-44
2022/06/13 07:56:50;;;;;;;18.63;17.63;;;;;;;13.85;94.14;101678.50;5014446;28;20429;-45
2022/06/13 07:59:22;;;;;;;17.90;17.00;;;;;;;13.91;94.75;101691.13;5014977;28;20468;-45
2022/06/13 08:01:50;;;;;;;17.17;16.10;;;;;;;13.98;91.50;101689.31;5011425;28;20986;-48
2022/06/13 08:04:18;;;;;;;15.50;14.70;;;;;;;14.46;93.63;101694.78;5011888;28;20456;-47
2022/06/13 08:06:45;;;;;;;13.40;12.60;;;;;;;14.66;89.59;101687.69;5011900;28;20477;-49
2022/06/13 08:09:13;;;;;;;9.20;8.60;;;;;;;14.51;90.21;101701.25;5010876;28;20456;-44
2022/06/13 08:11:45;;;;;;;10.90;7.63;;;;;;;14.30;91.65;101707.50;5011368;28;20807;-44
2022/06/13 08:14:14;;;;;;;8.33;7.77;;;;;;;14.05;93.45;101700.94;5012164;28;20436;-44
2022/06/13 08:16:42;;;;;;;7.80;6.97;;;;;;;13.96;93.44;101695.91;5027410;23;20847;-42
2022/06/13 08:19:10;;;;;;;7.10;6.43;;;;;;;14.12;92.28;101692.94;5012964;28;20445;-47
2022/06/13 08:21:39;;;;;;;6.70;6.07;;;;;;;14.27;91.76;101683.75;5011654;28;20459;-43
2022/06/13 08:24:07;;;;;;;5.43;5.17;;;;;;;14.90;91.86;101700.56;5012145;28;20441;-47
2022/06/13 08:26:41;;;;;;;5.40;5.10;;;;;;;15.54;91.15;101692.88;5011342;28;20476;-44
2022/06/13 08:29:09;;;;;;;5.77;5.30;;;;;;;15.71;84.75;101699.47;5011202;28;20837;-43
2022/06/13 08:31:38;;;;;;;5.63;5.00;;;;;;;15.87;80.92;101699.06;5011337;28;20433;-43
2022/06/13 08:34:07;;;;;;;8.13;5.67;;;;;;;16.12;85.62;101698.44;5011964;28;20433;-44
2022/06/13 08:36:34;;;;;;;5.80;5.30;;;;;;;16.29;83.51;101702.31;5011736;28;20467;-44
2022/06/13 08:39:02;;;;;;;5.20;4.73;;;;;;;16.41;83.60;101700.63;5011067;28;20461;-42
2022/06/13 08:41:42;;;;;;;6.20;5.60;;;;;;;16.43;83.00;101695.84;5011283;28;20440;-44
2022/06/13 08:44:33;;;;;;;5.57;5.07;;;;;;;16.12;77.58;101701.94;5011671;28;20441;-43
2022/06/13 08:47:09;;;;;;;7.03;5.50;;;;;;;16.69;83.58;101703.06;5010733;28;20476;-44
2022/06/13 08:49:42;;;;;;;7.77;5.00;;;;;;;17.31;88.36;101703.16;5011160;28;20439;-46
2022/06/13 08:52:25;;;;;;;8.53;4.73;;;;;;;18.34;87.29;101700.84;5011067;28;20898;-45
2022/06/13 08:55:03;;;;;;;4.70;4.30;;;;;;;18.55;82.72;101705.78;5012203;28;20429;-45
2022/06/13 08:57:35;;;;;;;7.07;4.30;;;;;;;18.62;81.50;101712.78;5012721;28;20486;-44
2022/06/13 09:00:08;;;;;;;6.70;5.00;;;;;;;18.67;81.35;101704.00;5011446;28;20433;-45
2022/06/13 09:02:44;;;;;;;6.70;4.50;;;;;;;18.21;77.92;101705.31;5011209;28;20437;-45
2022/06/13 09:05:17;;;;;;;10.47;5.30;;;;;;;17.64;76.35;101698.38;5011740;28;20440;-44
2022/06/13 09:07:51;;;;;;;4.13;3.87;;;;;;;17.01;69.64;101692.13;5010823;28;20468;-45
2022/06/13 09:10:26;;;;;;;7.00;4.30;;;;;;;16.73;73.27;101699.72;5011139;28;20437;-44
2022/06/13 09:12:59;;;;;;;5.93;4.60;;;;;;;16.69;77.73;101714.66;5011071;28;20440;-44
2022/06/13 09:15:32;;;;;;;4.93;4.43;;;;;;;16.53;80.07;101705.16;5011612;28;20433;-45
2022/06/13 09:18:06;;;;;;;6.53;5.30;;;;;;;16.61;82.89;101712.19;5010633;28;20461;-48
2022/06/13 09:20:42;;;;;;;5.93;4.53;;;;;;;16.75;85.39;101718.38;5010952;28;20432;-45
2022/06/13 09:23:19;;;;;;;6.07;5.57;;;;;;;16.80;84.84;101711.31;5011269;28;20960;-43
2022/06/13 09:25:52;;;;;;;7.63;5.60;;;;;;;16.93;84.32;101716.63;5011279;28;20511;-47
2022/06/13 09:28:23;;;;;;;7.70;4.60;;;;;;;17.22;86.97;101709.84;5010121;28;20857;-46
2022/06/13 09:30:57;;;;;;;6.80;5.37;;;;;;;17.89;84.58;101716.44;5010855;28;21074;-44
2022/06/13 09:33:31;;;;;;;5.10;4.63;;;;;;;18.00;81.58;101715.69;5010486;28;20440;-44
2022/06/13 09:36:01;;;;;;;9.50;5.50;;;;;;;17.96;81.48;101709.09;5011199;28;20456;-44
2022/06/13 09:38:32;;;;;;;4.97;4.57;;;;;;;17.99;84.28;101712.19;5012861;28;20464;-44
2022/06/13 09:41:16;;;;;;;6.83;5.90;;;;;;;17.91;78.22;101709.75;5014838;28;20815;-46
2022/06/13 09:43:58;;;;;;;7.33;5.40;;;;;;;18.69;82.13;101718.13;5014900;28;20944;-45
2022/06/13 09:46:34;;;;;;;7.43;5.03;;;;;;;18.77;74.49;101712.41;5014526;28;20547;-44
2022/06/13 09:49:15;;;;;;;6.80;4.73;;;;;;;18.67;72.10;101720.19;5014404;28;20482;-44
2022/06/13 09:51:56;;;;;;;8.10;4.40;;;;;;;18.41;70.53;101710.50;5014755;28;20439;-43
2022/06/13 09:54:37;;;;;;;8.07;4.50;;;;;;;18.21;70.72;101715.28;5015031;28;20451;-46
2022/06/13 09:57:15;;;;;;;5.53;5.00;;;;;;;18.30;69.31;101718.53;5014345;28;20440;-43
2022/06/13 09:59:56;;;;;;;5.40;4.40;;;;;;;18.34;70.55;101712.44;5014550;28;20440;-44
2022/06/13 10:02:29;;;;;;;6.90;4.87;;;;;;;18.54;68.30;101715.81;5014305;28;20440;-45
2022/06/13 10:05:08;;;;;;;7.13;4.57;;;;;;;18.79;65.76;101718.38;5014255;28;20952;-42
2022/06/13 10:07:42;;;;;;;5.80;4.73;;;;;;;18.98;69.30;101725.44;5014342;28;20467;-42
2022/06/13 10:10:18;;;;;;;7.10;4.80;;;;;;;18.30;69.83;101734.72;5014446;28;20434;-46
2022/06/13 10:12:58;;;;;;;8.37;5.00;;;;;;;17.87;69.88;101727.44;5014035;28;20436;-44
2022/06/13 10:15:36;;;;;;;5.53;5.10;;;;;;;18.23;72.98;101732.91;5014358;28;20428;-43
2022/06/13 10:18:24;;;;;;;5.63;5.07;;;;;;;18.93;75.29;101722.59;5013648;28;20490;-44
2022/06/13 10:20:58;;;;;;;5.37;4.97;;;;;;;19.44;73.60;101724.81;5013836;28;20440;-44
2022/06/13 10:23:36;;;;;;;7.40;5.43;;;;;;;19.80;72.29;101716.50;5013566;28;20435;-43
2022/06/13 10:26:11;;;;;;;7.30;4.93;;;;;;;18.86;66.67;101726.41;5013689;28;20452;-46
2022/06/13 10:29:02;;;;;;;6.70;4.20;;;;;;;18.37;62.05;101735.50;5004620;28;20472;-43
2022/06/13 10:31:39;;;;;;;5.60;5.07;;;;;;;19.10;66.72;101736.28;5012902;28;20439;-43
2022/06/13 10:34:14;;;;;;;5.70;4.47;;;;;;;19.54;66.17;101725.06;5012905;28;20467;-42
2022/06/13 10:36:54;;;;;;;5.50;4.40;;;;;;;19.03;60.95;101736.38;5013401;28;20453;-45
2022/06/13 10:39:24;;;;;;;7.23;4.07;;;;;;;18.91;63.61;101737.38;5013030;28;20471;-43
2022/06/13 10:41:54;;;;;;;5.47;4.60;;;;;;;18.66;63.50;101737.47;5013396;28;20437;-42
2022/06/13 10:44:23;;;;;;;6.90;4.23;;;;;;;18.63;62.37;101740.63;5013677;28;20440;-47
2022/06/13 10:46:55;;;;;;;5.77;4.50;;;;;;;19.02;64.90;101744.72;5013019;28;20471;-44
2022/06/13 10:49:27;;;;;;;7.37;4.70;;;;;;;19.72;63.64;101732.28;5012438;28;20466;-45
2022/06/13 10:52:05;;;;;;;7.87;5.27;;;;;;;20.27;60.11;101739.06;5013177;28;20429;-44
2022/06/13 10:54:39;;;;;;;5.87;4.87;;;;;;;19.21;58.36;101743.63;5013332;28;20428;-44
2022/06/13 10:57:10;;;;;;;4.30;3.40;;;;;;;17.98;57.55;101747.50;5017254;28;20450;-45
2022/06/13 10:59:39;;;;;;;4.77;4.30;;;;;;;17.50;62.00;101747.22;5013661;28;20428;-45
2022/06/13 11:02:24;;;;;;;4.73;4.00;;;;;;;17.90;63.05;101740.50;5013473;28;20432;-44
2022/06/13 11:05:06;;;;;;;8.33;4.50;;;;;;;17.53;62.94;101746.78;5013658;28;20851;-43
2022/06/13 11:07:42;;;;;;;6.43;4.90;;;;;;;17.40;68.43;101758.47;5003915;28;21088;-45
2022/06/13 11:10:22;;;;;;;9.80;4.47;;;;;;;17.30;65.23;101762.66;5012675;28;20433;-45
2022/06/13 11:12:52;;;;;;;5.20;4.13;;;;;;;17.75;63.08;101749.94;5012897;28;20432;-43
2022/06/13 11:24:12;;;;;;;6.47;4.37;;;;;;;18.69;61.05;101759.47;5012487;28;20941;-45
2022/06/13 11:29:28;;;;;;;4.47;3.90;;;;;;;17.73;61.04;101770.94;5011710;28;20476;-44
2022/06/13 11:31:58;;;;;;;5.80;4.60;;;;;;;17.38;61.55;101776.72;5011076;28;20421;-44
2022/06/13 11:34:32;;;;;;;5.47;4.83;;;;;;;17.49;63.40;101786.00;5012272;28;20846;-47
2022/06/13 11:37:03;;;;;;;4.60;4.00;;;;;;;17.26;62.63;101780.31;5011695;28;20446;-44
2022/06/13 11:39:35;;;;;;;5.30;4.80;;;;;;;17.03;64.07;101787.06;5011994;28;20956;-44
2022/06/13 11:42:13;;;;;;;5.50;4.37;;;;;;;16.90;67.94;101791.69;5012077;28;20470;-43
2022/06/13 11:44:42;;;;;;;6.60;5.13;;;;;;;16.80;68.00;101789.41;5012409;28;20435;-45
2022/06/13 11:47:10;;;;;;;7.90;4.70;;;;;;;16.89;67.45;101790.84;5011231;28;20822;-43
2022/06/13 11:49:40;;;;;;;6.60;4.40;;;;;;;17.61;65.36;101776.19;5012233;28;20477;-42
2022/06/13 11:55:22;;;;;;;4.50;4.20;;;;;;;18.23;63.75;101781.53;5011921;28;20433;-46
2022/06/13 11:57:54;;;;;;;4.90;4.70;;;;;;;18.92;62.49;101780.41;5018011;28;20457;-45
2022/06/13 12:00:32;;;;;;;3.93;3.63;;;;;;;18.24;58.46;101777.78;5011066;28;20439;-47
2022/06/13 12:03:07;;;;;;;4.47;4.20;;;;;;;18.30;59.93;101789.56;5011893;28;20436;-45
2022/06/13 12:05:38;;;;;;;4.10;3.80;;;;;;;18.08;56.65;101797.22;5011245;28;20451;-44
2022/06/13 12:08:20;;;;;;;4.13;3.83;;;;;;;17.58;58.61;101787.44;5010643;28;20475;-45
2022/06/13 12:11:02;;;;;;;3.77;3.50;;;;;;;17.43;60.22;101792.25;5011887;28;20830;-44
2022/06/13 12:13:31;;;;;;;4.20;4.00;;;;;;;17.87;60.43;101794.06;5011259;28;20440;-43